This is the latest recevied weather packets stored in our database for station/object SP1BMW-13. If no packets are shown the sender has not sent any weather packets the latest 10 day(s).
| Time | Temp. | Humidity | Pressure | Rain* | Wind** | Luminosity | Snow |
|---|---|---|---|---|---|---|---|
| 1787821517 | 22.78° C | 51% | 1020.7 hPa | 0 mm | 2.24 m/s, 82° | 502 W/m² | - |
| 1787821456 | 22.78° C | 54% | 1020.4 hPa | 0 mm | 0.89 m/s, 101° | 499 W/m² | - |
| 1787821396 | 22.22° C | 53% | 1020.7 hPa | 0 mm | 0 m/s | 498 W/m² | - |
| 1787821336 | 22.22° C | 53% | 1020.6 hPa | 0 mm | 0 m/s | 498 W/m² | - |
| 1787821276 | 22.22° C | 52% | 1020.7 hPa | 0 mm | 0.89 m/s, 42° | 497 W/m² | - |
| 1787821216 | 22.22° C | 52% | 1020.4 hPa | 0 mm | 0.89 m/s, 98° | 494 W/m² | - |
| 1787821157 | 22.78° C | 51% | 1020.7 hPa | 0 mm | 1.79 m/s, 117° | 492 W/m² | - |
| 1787821096 | 22.78° C | 51% | 1020.7 hPa | 0 mm | 1.34 m/s, 42° | 490 W/m² | - |
| 1787821036 | 22.78° C | 52% | 1020.6 hPa | 0 mm | 1.34 m/s, 65° | 490 W/m² | - |
| 1787820976 | 22.78° C | 52% | 1020.7 hPa | 0 mm | 1.34 m/s, 64° | 488 W/m² | - |
| 1787820917 | 22.78° C | 53% | 1020.6 hPa | 0 mm | 1.34 m/s, 46° | 487 W/m² | - |
| 1787820856 | 22.78° C | 51% | 1020.6 hPa | 0 mm | 1.79 m/s, 39° | 486 W/m² | - |
| 1787820797 | 22.78° C | 53% | 1020.6 hPa | 0 mm | 0.89 m/s, 321° | 484 W/m² | - |
| 1787820736 | 22.78° C | 51% | 1020.6 hPa | 0 mm | 0.89 m/s, 101° | 485 W/m² | - |
| 1787820676 | 22.78° C | 50% | 1020.7 hPa | 0 mm | 2.24 m/s, 5° | 483 W/m² | - |
| 1787820617 | 22.78° C | 50% | 1020.6 hPa | 0 mm | 1.79 m/s, 35° | 480 W/m² | - |
| 1787820556 | 22.78° C | 51% | 1020.8 hPa | 0 mm | 1.34 m/s, 77° | 478 W/m² | - |
| 1787820496 | 22.78° C | 50% | 1020.5 hPa | 0 mm | 0.89 m/s, 71° | 477 W/m² | - |
| 1787820436 | 22.78° C | 51% | 1020.7 hPa | 0 mm | 0.89 m/s, 147° | 476 W/m² | - |
| 1787820376 | 22.78° C | 50% | 1020.7 hPa | 0 mm | 1.79 m/s, 41° | 474 W/m² | - |
| 1787820316 | 22.78° C | 52% | 1020.6 hPa | 0 mm | 0 m/s | 473 W/m² | - |
| 1787820259 | 22.78° C | 52% | 1020.4 hPa | 0 mm | 1.34 m/s, 75° | 470 W/m² | - |
| 1787820196 | 22.78° C | 51% | 1020.6 hPa | 0 mm | 0.45 m/s, 45° | 469 W/m² | - |
| 1787820136 | 22.78° C | 50% | 1020.7 hPa | 0 mm | 1.34 m/s, 143° | 466 W/m² | - |
| 1787820076 | 22.78° C | 53% | 1020.7 hPa | 0 mm | 0.45 m/s, 31° | 464 W/m² | - |
* Rain latest hour (hover to see other rain measurements)
** Current wind speed in m/s (hover to see current wind gust speed)